Time;durP1;ratioP1;P1;durP2;ratioP2;P2;SDS_P1;SDS_P2;PMS_P1;PMS_P2;Temp;Humidity;BMP_temperature;BMP_pressure;BME280_temperature;BME280_humidity;BME280_pressure;Samples;Min_cycle;Max_cycle;Signal;HPM_P1;HPM_P2
2023/05/08 00:01:31;;;;;;;4.57;3.87;;;18.20;99.90;;;;;;4975568;28;20475;-83
2023/05/08 00:04:12;;;;;;;3.90;3.60;;;18.20;99.90;;;;;;4974374;28;20479;-83
2023/05/08 00:06:53;;;;;;;3.50;3.20;;;18.00;99.90;;;;;;4972997;28;20488;-82
2023/05/08 00:09:23;;;;;;;5.00;4.50;;;18.10;99.90;;;;;;4971013;28;20467;-83
2023/05/08 00:11:49;;;;;;;4.20;3.80;;;18.00;99.90;;;;;;4975204;28;20468;-83
2023/05/08 00:14:23;;;;;;;4.40;4.00;;;18.20;99.90;;;;;;4976878;28;20452;-81
2023/05/08 00:16:50;;;;;;;4.03;3.63;;;18.50;99.90;;;;;;4983269;28;20443;-82
2023/05/08 00:19:24;;;;;;;5.03;4.53;;;18.60;99.90;;;;;;4975510;28;20506;-83
2023/05/08 00:21:59;;;;;;;4.60;4.20;;;18.60;99.90;;;;;;4974039;28;20495;-84
2023/05/08 00:24:33;;;;;;;4.13;3.73;;;18.40;99.90;;;;;;4977415;28;20460;-81
2023/05/08 00:27:07;;;;;;;4.70;3.87;;;18.20;99.90;;;;;;4979409;28;20571;-81
2023/05/08 00:29:36;;;;;;;4.80;4.40;;;18.30;99.90;;;;;;4978841;28;20499;-82
2023/05/08 00:32:16;;;;;;;4.53;4.13;;;18.10;99.90;;;;;;4979983;28;20480;-83
2023/05/08 00:34:45;;;;;;;4.53;4.10;;;18.10;99.90;;;;;;4975966;28;20536;-82
2023/05/08 00:37:19;;;;;;;5.13;4.63;;;18.30;99.90;;;;;;4973802;28;20536;-84
2023/05/08 00:39:58;;;;;;;4.50;4.20;;;18.30;99.90;;;;;;4976994;28;20459;-83
2023/05/08 00:42:44;;;;;;;3.87;3.57;;;18.20;99.90;;;;;;4969795;28;20480;-82
2023/05/08 00:45:21;;;;;;;3.77;3.47;;;18.10;99.90;;;;;;4974128;28;20506;-83
2023/05/08 00:47:49;;;;;;;4.10;3.70;;;18.10;99.90;;;;;;4970257;28;20465;-83
2023/05/08 00:50:17;;;;;;;4.00;3.70;;;17.90;99.90;;;;;;4975809;28;20476;-83
2023/05/08 00:52:50;;;;;;;3.80;3.50;;;17.90;99.90;;;;;;4976018;28;20455;-83
2023/05/08 00:55:23;;;;;;;4.07;3.67;;;17.90;99.90;;;;;;4976915;28;21029;-84
2023/05/08 00:57:54;;;;;;;3.40;3.10;;;17.70;99.90;;;;;;4974699;28;20476;-84
2023/05/08 01:00:25;;;;;;;3.40;3.10;;;18.00;99.90;;;;;;4974678;28;20472;-84
2023/05/08 01:03:05;;;;;;;3.80;3.50;;;18.10;99.90;;;;;;4976715;28;20459;-83
2023/05/08 01:05:48;;;;;;;3.00;2.80;;;17.90;99.90;;;;;;4974151;28;20518;-84
2023/05/08 01:08:24;;;;;;;3.83;3.47;;;17.90;99.90;;;;;;4974827;28;20456;-83
2023/05/08 01:11:22;;;;;;;3.80;3.40;;;17.90;99.90;;;;;;4978179;28;20476;-83
2023/05/08 01:13:56;;;;;;;3.73;3.43;;;17.80;99.90;;;;;;4973488;28;20487;-83
2023/05/08 01:17:11;;;;;;;3.77;3.47;;;17.70;99.90;;;;;;4980100;28;20539;-83
2023/05/08 01:20:04;;;;;;;4.37;3.33;;;17.60;99.90;;;;;;4979665;28;20487;-83
2023/05/08 01:23:24;;;;;;;4.57;4.20;;;17.70;99.90;;;;;;4983038;28;20455;-83
2023/05/08 01:26:25;;;;;;;6.20;3.70;;;17.70;99.90;;;;;;4963771;28;20566;-84
2023/05/08 01:29:35;;;;;;;3.50;3.20;;;17.60;99.90;;;;;;4975357;28;20460;-84
2023/05/08 01:32:31;;;;;;;4.80;3.87;;;17.50;99.90;;;;;;4975817;28;20510;-84
2023/05/08 01:35:42;;;;;;;3.80;3.40;;;17.40;99.90;;;;;;4976786;28;21019;-83
2023/05/08 01:38:51;;;;;;;3.80;3.50;;;17.40;99.90;;;;;;4981645;28;20523;-82
2023/05/08 01:41:35;;;;;;;3.40;3.10;;;17.60;99.90;;;;;;4985257;28;20496;-82
2023/05/08 01:44:20;;;;;;;6.53;3.87;;;17.60;99.90;;;;;;4989203;28;20539;-83
2023/05/08 01:47:02;;;;;;;4.77;3.87;;;17.60;99.90;;;;;;4970227;28;20475;-83
2023/05/08 01:49:50;;;;;;;4.80;3.70;;;17.50;99.90;;;;;;4967733;28;20487;-82
2023/05/08 01:52:39;;;;;;;4.60;4.20;;;17.50;99.90;;;;;;4964215;28;20579;-83
2023/05/08 01:55:44;;;;;;;4.50;3.60;;;17.50;99.90;;;;;;4976026;28;20456;-84
2023/05/08 01:58:33;;;;;;;4.03;3.53;;;17.40;99.90;;;;;;4975341;28;20460;-82
2023/05/08 02:01:16;;;;;;;4.17;3.77;;;17.20;99.90;;;;;;4977221;28;20949;-82
2023/05/08 02:04:01;;;;;;;4.40;4.00;;;17.20;99.90;;;;;;4973006;28;20483;-83
2023/05/08 02:06:40;;;;;;;5.57;3.83;;;17.50;99.90;;;;;;4971464;28;20510;-81
2023/05/08 02:09:14;;;;;;;4.27;3.90;;;17.40;99.90;;;;;;4971178;28;20880;-82
2023/05/08 02:11:48;;;;;;;4.23;3.93;;;17.20;99.90;;;;;;4985914;28;20484;-81
2023/05/08 02:14:29;;;;;;;4.40;3.80;;;17.10;99.90;;;;;;4985024;28;20454;-81
2023/05/08 02:17:08;;;;;;;3.57;3.30;;;17.20;99.90;;;;;;4988922;28;20457;-82
2023/05/08 02:19:40;;;;;;;4.70;3.90;;;17.40;99.90;;;;;;4989894;28;20523;-82
2023/05/08 02:22:22;;;;;;;4.40;4.00;;;17.50;99.90;;;;;;4983535;28;20475;-82
2023/05/08 02:25:25;;;;;;;4.40;3.90;;;17.40;99.90;;;;;;4988859;28;20507;-82
2023/05/08 02:28:07;;;;;;;4.83;3.93;;;17.40;99.90;;;;;;4983290;28;20464;-82
2023/05/08 02:30:45;;;;;;;4.93;4.33;;;17.30;99.90;;;;;;4988340;28;20522;-81
2023/05/08 02:33:24;;;;;;;4.40;4.00;;;17.30;99.90;;;;;;4998832;28;20493;-81
2023/05/08 02:36:02;;;;;;;4.70;4.30;;;17.30;99.90;;;;;;4990398;28;20458;-82
2023/05/08 02:38:31;;;;;;;5.00;3.83;;;17.30;99.90;;;;;;4990880;28;20471;-81
2023/05/08 02:41:05;;;;;;;7.13;3.70;;;17.20;99.90;;;;;;4989009;28;20499;-81
2023/05/08 02:43:32;;;;;;;5.00;3.93;;;17.10;99.90;;;;;;4988841;28;20444;-81
2023/05/08 02:46:37;;;;;;;4.90;4.30;;;17.20;99.90;;;;;;4986938;28;20483;-80
2023/05/08 02:49:23;;;;;;;4.10;3.70;;;17.10;99.90;;;;;;4990721;28;20454;-81
2023/05/08 02:52:10;;;;;;;4.57;4.17;;;17.10;99.90;;;;;;4986721;28;20448;-82
2023/05/08 02:55:03;;;;;;;4.27;3.90;;;17.20;99.90;;;;;;4983275;28;20436;-82
2023/05/08 02:58:00;;;;;;;4.23;3.83;;;17.10;99.90;;;;;;5003592;28;20495;-82
2023/05/08 03:00:33;;;;;;;6.17;5.33;;;17.10;99.90;;;;;;4974552;28;20543;-83
2023/05/08 03:03:22;;;;;;;5.80;5.10;;;17.20;99.90;;;;;;4979166;28;20464;-84
2023/05/08 03:06:09;;;;;;;4.90;4.50;;;17.10;99.90;;;;;;4986683;28;20477;-82
2023/05/08 03:08:49;;;;;;;4.73;4.03;;;17.10;99.90;;;;;;4990230;28;20966;-82
2023/05/08 03:11:47;;;;;;;5.07;4.60;;;17.00;99.90;;;;;;4983592;28;20503;-81
2023/05/08 03:14:31;;;;;;;4.00;3.60;;;16.90;99.90;;;;;;4993518;28;20441;-81
2023/05/08 03:17:01;;;;;;;6.30;4.57;;;16.90;99.90;;;;;;4978947;28;20546;-83
2023/05/08 03:19:38;;;;;;;5.90;4.90;;;16.90;99.90;;;;;;4979878;28;20460;-83
2023/05/08 03:22:23;;;;;;;4.87;4.33;;;16.90;99.90;;;;;;4990724;28;20472;-83
2023/05/08 03:25:03;;;;;;;6.60;4.90;;;16.90;99.90;;;;;;4980968;28;20523;-83
2023/05/08 03:27:36;;;;;;;6.50;4.70;;;16.90;99.90;;;;;;4997479;28;20468;-82
2023/05/08 03:30:08;;;;;;;5.30;4.80;;;16.80;99.90;;;;;;4990717;28;20475;-83
2023/05/08 03:32:36;;;;;;;5.27;4.77;;;16.90;99.90;;;;;;4985080;28;20453;-82
2023/05/08 03:35:14;;;;;;;6.03;5.53;;;16.80;99.90;;;;;;4995340;28;20443;-82
2023/05/08 03:37:50;;;;;;;5.97;5.30;;;16.70;99.90;;;;;;4992736;28;20531;-82
2023/05/08 03:40:24;;;;;;;6.20;5.60;;;16.80;99.90;;;;;;4977829;28;20480;-83
2023/05/08 03:42:52;;;;;;;5.37;4.87;;;16.90;99.90;;;;;;4973334;28;20559;-82
2023/05/08 03:45:23;;;;;;;5.97;5.30;;;17.00;99.90;;;;;;4970748;28;20584;-83
2023/05/08 03:48:02;;;;;;;6.97;5.07;;;16.90;99.90;;;;;;4967979;28;20498;-83
2023/05/08 03:50:44;;;;;;;5.50;4.67;;;16.80;99.90;;;;;;4969640;28;20472;-82
2023/05/08 03:53:14;;;;;;;6.00;5.00;;;16.80;99.90;;;;;;4980687;28;20471;-81
2023/05/08 03:55:54;;;;;;;5.47;4.90;;;16.80;99.90;;;;;;4981994;28;20551;-81
2023/05/08 03:58:37;;;;;;;4.93;4.50;;;16.80;99.90;;;;;;4979934;28;20471;-81
2023/05/08 04:01:31;;;;;;;6.10;4.47;;;16.90;99.90;;;;;;4986764;28;20464;-81
2023/05/08 04:04:18;;;;;;;6.10;4.97;;;16.80;99.90;;;;;;4985350;28;20456;-82
2023/05/08 04:07:04;;;;;;;6.00;5.00;;;16.80;99.90;;;;;;4985234;28;20914;-82
2023/05/08 04:09:37;;;;;;;5.77;5.17;;;16.80;99.90;;;;;;4976350;28;20507;-82
2023/05/08 04:12:31;;;;;;;7.67;6.33;;;16.70;99.90;;;;;;4970668;28;20491;-83
2023/05/08 04:15:10;;;;;;;6.73;5.97;;;16.80;99.90;;;;;;4972814;28;20479;-84
2023/05/08 04:17:41;;;;;;;6.10;5.37;;;16.80;99.90;;;;;;4971126;28;20479;-84
2023/05/08 04:20:20;;;;;;;6.67;5.67;;;16.60;99.90;;;;;;4977113;28;20452;-83
2023/05/08 04:22:53;;;;;;;7.00;5.43;;;16.50;99.90;;;;;;4972230;28;20965;-82
2023/05/08 04:25:21;;;;;;;5.83;5.23;;;16.60;99.90;;;;;;4974182;28;20491;-85
2023/05/08 04:27:50;;;;;;;8.23;5.40;;;16.50;99.90;;;;;;4973936;28;20487;-83
2023/05/08 04:30:17;;;;;;;6.10;5.37;;;16.60;99.90;;;;;;4981773;28;20470;-84
2023/05/08 04:32:44;;;;;;;7.00;5.73;;;16.70;99.90;;;;;;4978534;28;20460;-83
2023/05/08 04:35:12;;;;;;;7.97;5.93;;;16.70;99.90;;;;;;4980126;28;20451;-82
2023/05/08 04:37:42;;;;;;;6.60;5.50;;;16.70;99.90;;;;;;4980122;28;20485;-82
2023/05/08 04:40:09;;;;;;;9.83;6.17;;;16.70;99.90;;;;;;4976951;28;20550;-81
2023/05/08 04:42:38;;;;;;;7.90;5.67;;;16.60;99.90;;;;;;4980220;28;20474;-83
2023/05/08 04:45:05;;;;;;;6.87;6.17;;;16.50;99.90;;;;;;4976552;28;20457;-82
2023/05/08 04:47:32;;;;;;;6.20;5.60;;;16.50;99.90;;;;;;4979784;28;20490;-82
2023/05/08 04:49:59;;;;;;;9.10;6.20;;;16.40;99.90;;;;;;4978035;28;20547;-81
2023/05/08 04:52:30;;;;;;;6.40;5.80;;;16.50;99.90;;;;;;4974023;28;21003;-83
2023/05/08 04:54:57;;;;;;;6.13;5.53;;;16.40;99.90;;;;;;4979239;28;20464;-83
2023/05/08 04:57:24;;;;;;;7.90;6.27;;;16.30;99.90;;;;;;4977049;28;20511;-83
2023/05/08 04:59:51;;;;;;;7.43;6.07;;;16.50;99.90;;;;;;4973566;28;20472;-82
2023/05/08 05:02:26;;;;;;;9.23;7.10;;;16.60;99.90;;;;;;4973509;28;20484;-83
2023/05/08 05:05:00;;;;;;;8.03;6.90;;;16.50;99.90;;;;;;4974241;28;20459;-84
2023/05/08 05:07:38;;;;;;;8.73;6.87;;;16.50;99.90;;;;;;4975553;28;20479;-83
2023/05/08 05:10:10;;;;;;;7.40;6.47;;;16.40;99.90;;;;;;4991397;28;20448;-85
2023/05/08 05:12:48;;;;;;;6.90;6.20;;;16.50;99.90;;;;;;4978928;28;20486;-84
2023/05/08 05:15:44;;;;;;;6.90;6.20;;;16.50;99.90;;;;;;4982470;28;20915;-82
2023/05/08 05:18:21;;;;;;;8.97;6.60;;;16.60;99.90;;;;;;4993759;28;20464;-82
2023/05/08 05:21:01;;;;;;;10.90;7.40;;;16.50;99.90;;;;;;4989356;28;20609;-83
2023/05/08 05:23:32;;;;;;;6.60;5.67;;;16.50;99.90;;;;;;4983497;28;20478;-82
2023/05/08 05:26:04;;;;;;;8.87;7.07;;;16.50;99.90;;;;;;4980243;28;20444;-81
2023/05/08 05:28:41;;;;;;;7.67;6.60;;;16.50;99.90;;;;;;4981521;28;20451;-83
2023/05/08 05:31:11;;;;;;;8.27;6.80;;;16.40;99.90;;;;;;4978974;28;21011;-83
2023/05/08 05:33:41;;;;;;;10.20;7.70;;;16.30;99.90;;;;;;4979946;28;20456;-82
2023/05/08 05:36:10;;;;;;;8.60;7.07;;;16.30;99.90;;;;;;4989870;28;20463;-83
2023/05/08 05:38:40;;;;;;;12.23;7.50;;;16.40;99.90;;;;;;4995650;28;20436;-82
2023/05/08 05:41:11;;;;;;;7.83;6.50;;;16.40;99.90;;;;;;4990998;28;20463;-82
2023/05/08 05:43:49;;;;;;;7.80;6.93;;;16.40;99.90;;;;;;4995851;28;20452;-82
2023/05/08 05:46:32;;;;;;;7.90;6.97;;;16.50;99.90;;;;;;4994949;28;20475;-81
2023/05/08 05:49:01;;;;;;;9.40;6.87;;;16.50;99.90;;;;;;5003966;28;20551;-82
2023/05/08 05:51:38;;;;;;;9.47;7.60;;;16.50;99.90;;;;;;4994819;28;20464;-82
2023/05/08 05:54:06;;;;;;;8.73;7.80;;;16.50;99.90;;;;;;4995168;28;20455;-81
2023/05/08 05:56:33;;;;;;;8.00;7.20;;;16.60;99.90;;;;;;4993320;28;20464;-81
2023/05/08 05:59:05;;;;;;;10.07;7.27;;;16.60;99.90;;;;;;4991507;28;20456;-80
2023/05/08 06:01:36;;;;;;;7.53;6.70;;;16.50;99.90;;;;;;4994114;28;20464;-81
2023/05/08 06:04:10;;;;;;;8.20;6.93;;;16.50;99.90;;;;;;4995091;28;20472;-82
2023/05/08 06:06:39;;;;;;;9.63;6.87;;;16.40;99.90;;;;;;4993749;28;20484;-84
2023/05/08 06:09:08;;;;;;;8.57;6.77;;;16.40;99.90;;;;;;4985372;28;20597;-84
2023/05/08 06:11:35;;;;;;;7.90;7.20;;;16.40;99.90;;;;;;4985573;28;20792;-84
2023/05/08 06:14:04;;;;;;;7.47;6.77;;;16.40;99.90;;;;;;4981925;28;20464;-82
2023/05/08 06:16:37;;;;;;;7.90;6.50;;;16.50;99.90;;;;;;4980705;28;20463;-84
2023/05/08 06:19:07;;;;;;;8.47;7.00;;;16.70;99.90;;;;;;4983266;28;20599;-83
2023/05/08 06:21:45;;;;;;;7.93;7.07;;;16.60;99.90;;;;;;4986598;28;20570;-84
2023/05/08 06:24:26;;;;;;;7.27;6.53;;;16.60;99.90;;;;;;4982065;28;20467;-84
2023/05/08 06:26:59;;;;;;;11.00;6.87;;;16.60;99.90;;;;;;4991679;28;20484;-83
2023/05/08 06:29:27;;;;;;;9.50;7.40;;;16.80;99.90;;;;;;4989965;28;21835;-82
2023/05/08 06:31:59;;;;;;;7.80;6.60;;;16.90;99.90;;;;;;4987148;28;20487;-82
2023/05/08 06:34:26;;;;;;;8.10;5.90;;;16.90;99.90;;;;;;4987622;28;20516;-81
2023/05/08 06:36:56;;;;;;;7.70;6.60;;;17.00;99.90;;;;;;4988601;28;20549;-85
2023/05/08 06:39:25;;;;;;;7.73;6.43;;;17.00;99.90;;;;;;4976670;28;20546;-82
2023/05/08 06:41:53;;;;;;;9.73;6.87;;;17.10;99.90;;;;;;4975747;28;20554;-83
2023/05/08 06:44:21;;;;;;;7.57;6.87;;;17.20;99.90;;;;;;4979637;28;20550;-82
2023/05/08 06:46:48;;;;;;;7.80;6.93;;;17.10;99.90;;;;;;4974019;28;20582;-82
2023/05/08 06:49:21;;;;;;;7.57;6.77;;;17.10;99.90;;;;;;4978554;28;20575;-80
2023/05/08 06:52:00;;;;;;;7.27;6.50;;;17.20;99.90;;;;;;4983154;28;20610;-81
2023/05/08 06:54:32;;;;;;;7.70;6.90;;;17.10;99.90;;;;;;4990585;28;20474;-81
2023/05/08 06:57:17;;;;;;;8.03;6.70;;;17.00;99.90;;;;;;4984319;28;20456;-82
2023/05/08 06:59:50;;;;;;;8.67;7.77;;;16.90;99.90;;;;;;4990254;28;20444;-81
2023/05/08 07:02:17;;;;;;;7.00;6.30;;;16.80;99.90;;;;;;4988691;28;20583;-80
2023/05/08 07:04:49;;;;;;;8.47;6.70;;;16.90;99.90;;;;;;4991383;28;20467;-80
2023/05/08 07:07:33;;;;;;;10.10;6.80;;;16.90;99.90;;;;;;4989546;28;20531;-82
2023/05/08 07:10:19;;;;;;;7.43;6.37;;;17.00;99.90;;;;;;5002599;28;20463;-83
2023/05/08 07:12:56;;;;;;;8.27;7.00;;;16.90;99.90;;;;;;5001306;28;20479;-81
2023/05/08 07:15:33;;;;;;;7.50;6.60;;;16.90;99.90;;;;;;4992851;28;20516;-82
2023/05/08 07:18:00;;;;;;;10.30;6.37;;;16.90;99.90;;;;;;4992136;28;20464;-82
2023/05/08 07:20:36;;;;;;;7.87;7.07;;;17.00;99.90;;;;;;4994099;28;20468;-82
2023/05/08 07:23:18;;;;;;;7.93;6.97;;;17.10;99.90;;;;;;4992489;28;20450;-82
2023/05/08 07:25:48;;;;;;;8.07;7.07;;;16.80;99.90;;;;;;4992317;28;20455;-81
2023/05/08 07:28:34;;;;;;;6.90;6.20;;;17.00;99.90;;;;;;4992065;28;20495;-83
2023/05/08 07:31:14;;;;;;;8.00;6.90;;;17.20;99.90;;;;;;4986531;28;20480;-81
2023/05/08 07:34:01;;;;;;;7.30;6.60;;;17.70;99.90;;;;;;4973468;28;21027;-82
2023/05/08 07:36:28;;;;;;;8.50;7.57;;;17.90;99.90;;;;;;4974707;28;20463;-84
2023/05/08 07:38:59;;;;;;;6.93;6.23;;;18.20;99.90;;;;;;4978677;28;20473;-83
2023/05/08 07:41:30;;;;;;;7.13;6.43;;;18.30;99.90;;;;;;4978599;28;20968;-83
2023/05/08 07:43:57;;;;;;;6.40;5.57;;;18.20;99.90;;;;;;4979345;28;20486;-83
2023/05/08 07:46:31;;;;;;;9.10;6.50;;;18.20;99.90;;;;;;4977874;28;20916;-82
2023/05/08 07:49:04;;;;;;;7.27;6.30;;;18.50;99.90;;;;;;4977054;28;20457;-83
2023/05/08 07:51:34;;;;;;;6.63;5.93;;;18.70;99.90;;;;;;4976336;28;20817;-83
2023/05/08 07:54:15;;;;;;;5.60;5.10;;;18.60;99.90;;;;;;4976891;28;20462;-84
2023/05/08 07:56:44;;;;;;;7.30;6.60;;;18.60;99.90;;;;;;4981918;28;20452;-84
2023/05/08 07:59:14;;;;;;;7.63;6.73;;;18.80;99.90;;;;;;4974778;28;20472;-82
2023/05/08 08:01:46;;;;;;;8.80;6.73;;;18.60;99.90;;;;;;4978117;28;20500;-82
2023/05/08 08:04:18;;;;;;;7.80;5.80;;;18.50;99.90;;;;;;4975347;28;20478;-84
2023/05/08 08:06:56;;;;;;;7.40;6.70;;;18.60;99.90;;;;;;4992768;28;20472;-83
2023/05/08 08:09:29;;;;;;;5.90;5.30;;;18.70;99.90;;;;;;4990878;28;20469;-82
2023/05/08 08:11:57;;;;;;;6.80;6.10;;;19.10;99.90;;;;;;4990390;28;20471;-83
2023/05/08 08:14:33;;;;;;;6.33;5.67;;;19.10;99.90;;;;;;4991816;28;20475;-83
2023/05/08 08:17:03;;;;;;;7.43;6.70;;;19.20;99.60;;;;;;5002925;28;20531;-83
2023/05/08 08:19:35;;;;;;;6.50;5.80;;;19.20;99.80;;;;;;5007712;28;20451;-83
2023/05/08 08:22:02;;;;;;;6.47;5.67;;;19.70;99.90;;;;;;4990135;28;20964;-83
2023/05/08 08:24:29;;;;;;;9.17;6.97;;;20.40;97.80;;;;;;5004228;28;20452;-83
2023/05/08 08:27:05;;;;;;;7.07;6.47;;;20.60;96.80;;;;;;4988078;28;20544;-83
2023/05/08 08:29:42;;;;;;;6.30;5.70;;;20.40;96.70;;;;;;4985554;28;20531;-84
2023/05/08 08:32:28;;;;;;;9.57;6.17;;;20.40;96.50;;;;;;4978383;28;20492;-83
2023/05/08 08:35:16;;;;;;;7.17;6.37;;;20.20;96.60;;;;;;4981687;28;20931;-83
2023/05/08 08:38:07;;;;;;;8.53;6.90;;;19.90;97.30;;;;;;4973076;28;20464;-84
2023/05/08 08:40:54;;;;;;;6.80;5.93;;;19.60;98.00;;;;;;4972702;28;20480;-84
2023/05/08 08:43:27;;;;;;;7.40;6.70;;;19.60;97.90;;;;;;4969818;28;20460;-83
2023/05/08 08:46:27;;;;;;;6.83;6.13;;;19.30;98.40;;;;;;4976972;28;20546;-84
2023/05/08 08:50:00;;;;;;;7.53;6.80;;;18.90;99.20;;;;;;4972164;28;20939;-84
2023/05/08 08:52:43;;;;;;;8.40;6.53;;;18.90;99.90;;;;;;4974367;28;20467;-83
2023/05/08 08:55:40;;;;;;;7.90;6.87;;;18.90;99.90;;;;;;4970651;28;20448;-82
2023/05/08 08:58:58;;;;;;;7.37;6.60;;;18.60;99.90;;;;;;4977186;28;20475;-82
2023/05/08 09:01:39;;;;;;;9.00;8.10;;;19.10;99.90;;;;;;4976032;28;20567;-83
2023/05/08 09:04:17;;;;;;;7.20;6.50;;;18.80;99.90;;;;;;4973996;28;21152;-82
2023/05/08 09:06:50;;;;;;;6.90;6.30;;;18.80;99.90;;;;;;4981961;28;20470;-83
2023/05/08 09:09:53;;;;;;;7.37;5.93;;;18.80;99.90;;;;;;4983434;28;20559;-82
2023/05/08 09:12:55;;;;;;;8.40;7.60;;;19.10;99.90;;;;;;4975245;28;21157;-84
2023/05/08 09:15:37;;;;;;;10.10;6.50;;;19.20;99.90;;;;;;4977797;28;20444;-83
2023/05/08 09:18:10;;;;;;;6.63;6.00;;;19.00;99.90;;;;;;4971934;28;20457;-83
2023/05/08 09:20:46;;;;;;;7.20;6.50;;;19.20;99.50;;;;;;4974364;28;20472;-84
2023/05/08 09:23:21;;;;;;;7.33;6.50;;;19.30;99.40;;;;;;4976789;28;20467;-85
2023/05/08 09:25:52;;;;;;;7.60;6.77;;;19.20;99.60;;;;;;4977163;28;20463;-84
2023/05/08 09:28:55;;;;;;;6.70;6.10;;;19.00;99.90;;;;;;4966242;28;20487;-84
2023/05/08 09:31:50;;;;;;;7.03;6.33;;;19.00;99.90;;;;;;4975354;28;20503;-83
2023/05/08 09:34:35;;;;;;;7.57;6.83;;;19.20;99.80;;;;;;4979663;28;20455;-83
2023/05/08 09:37:46;;;;;;;8.47;7.57;;;18.90;99.90;;;;;;4983614;28;20426;-82
2023/05/08 09:40:25;;;;;;;7.83;6.70;;;18.50;99.90;;;;;;4989236;28;20486;-82
2023/05/08 09:43:10;;;;;;;8.43;7.50;;;18.60;99.90;;;;;;4988593;28;20456;-82
2023/05/08 09:45:44;;;;;;;7.13;6.50;;;18.60;99.90;;;;;;4996814;28;20491;-84
2023/05/08 09:48:14;;;;;;;7.33;6.60;;;18.70;99.90;;;;;;4973965;28;20483;-84
2023/05/08 09:51:06;;;;;;;8.57;7.67;;;18.70;99.90;;;;;;4973621;28;20467;-84
2023/05/08 09:53:33;;;;;;;7.93;6.97;;;18.80;99.90;;;;;;4975972;28;20466;-84
2023/05/08 09:56:09;;;;;;;8.13;7.33;;;18.60;99.90;;;;;;4978123;28;20554;-83
2023/05/08 09:59:18;;;;;;;10.17;8.20;;;18.60;99.90;;;;;;4975289;28;20482;-82
2023/05/08 10:02:19;;;;;;;8.13;7.30;;;18.60;99.90;;;;;;4972357;28;20907;-84
2023/05/08 10:04:58;;;;;;;7.37;6.47;;;18.60;99.90;;;;;;4970117;28;20500;-83
2023/05/08 10:07:51;;;;;;;9.13;7.23;;;18.60;99.90;;;;;;4973658;28;20483;-83
2023/05/08 10:10:35;;;;;;;7.37;6.67;;;18.60;99.90;;;;;;4969624;28;20468;-82
2023/05/08 10:13:22;;;;;;;8.07;6.30;;;18.50;99.90;;;;;;4968484;28;20464;-83
2023/05/08 10:16:08;;;;;;;9.23;7.00;;;18.50;99.90;;;;;;4975717;28;20447;-84
2023/05/08 10:19:07;;;;;;;9.00;7.10;;;18.50;99.90;;;;;;4974563;28;20475;-83
2023/05/08 10:21:52;;;;;;;7.03;6.43;;;18.50;99.90;;;;;;4972164;28;20471;-83
2023/05/08 10:24:40;;;;;;;8.10;7.30;;;18.40;99.90;;;;;;4970181;28;20492;-84
2023/05/08 10:27:46;;;;;;;6.43;5.80;;;18.30;99.90;;;;;;4970636;28;21197;-84
2023/05/08 10:30:29;;;;;;;7.20;6.50;;;18.40;99.90;;;;;;4974061;28;20461;-84
2023/05/08 10:33:23;;;;;;;;;;;;;;;;;;;;;
2023/05/08 10:36:10;;;;;;;7.43;6.70;;;18.40;99.90;;;;;;4985279;28;20479;-83
2023/05/08 10:38:43;;;;;;;8.07;6.80;;;18.40;99.90;;;;;;4988226;28;20491;-82
2023/05/08 10:42:18;;;;;;;8.50;7.20;;;18.40;99.90;;;;;;4978864;28;20491;-82
2023/05/08 10:45:23;;;;;;;7.63;6.90;;;18.20;99.90;;;;;;4979830;28;20472;-81
2023/05/08 10:48:21;;;;;;;7.90;7.10;;;18.00;99.90;;;;;;4990846;28;20555;-84
2023/05/08 10:51:22;;;;;;;7.90;7.13;;;18.10;99.90;;;;;;4976243;28;20490;-83
2023/05/08 10:54:12;;;;;;;8.47;6.70;;;18.00;99.90;;;;;;4971652;28;20440;-84
2023/05/08 10:57:31;;;;;;;8.67;6.83;;;18.00;99.90;;;;;;4940212;28;20513;-83
2023/05/08 11:00:12;;;;;;;8.67;7.70;;;18.10;99.90;;;;;;4972352;28;20858;-85
2023/05/08 11:03:07;;;;;;;8.13;6.93;;;18.00;99.90;;;;;;4971748;28;20467;-83
2023/05/08 11:05:55;;;;;;;7.80;7.00;;;18.00;99.90;;;;;;4967191;28;20458;-84
2023/05/08 11:12:29;;;;;;;7.70;6.90;;;17.70;99.90;;;;;;4966086;28;20456;-84
2023/05/08 11:15:17;;;;;;;8.20;6.87;;;17.80;99.90;;;;;;4968966;28;20885;-83
2023/05/08 11:18:05;;;;;;;7.90;7.10;;;18.20;99.90;;;;;;4963079;28;20460;-84
2023/05/08 11:21:08;;;;;;;9.67;6.90;;;18.10;99.90;;;;;;4974870;28;20463;-84
2023/05/08 11:23:58;;;;;;;9.33;7.90;;;18.50;99.90;;;;;;4974969;28;20482;-84
2023/05/08 11:26:41;;;;;;;7.50;6.63;;;18.60;99.90;;;;;;4972348;28;20484;-82
2023/05/08 11:29:37;;;;;;;9.83;7.17;;;18.50;99.90;;;;;;4968116;28;20551;-84
2023/05/08 11:32:45;;;;;;;8.53;6.43;;;18.40;99.90;;;;;;4970433;28;21051;-84
2023/05/08 11:36:06;;;;;;;7.83;6.33;;;18.20;99.90;;;;;;4954188;28;20507;-84
2023/05/08 11:39:16;;;;;;;7.20;5.83;;;18.20;99.90;;;;;;4945528;28;20444;-84
2023/05/08 11:42:15;;;;;;;9.80;6.17;;;18.20;99.90;;;;;;4969239;28;20475;-84
2023/05/08 11:44:48;;;;;;;8.57;7.00;;;18.10;99.90;;;;;;4973938;28;20464;-83
2023/05/08 11:47:31;;;;;;;11.70;8.10;;;18.20;99.90;;;;;;4975899;28;20618;-82
2023/05/08 11:50:16;;;;;;;7.90;7.10;;;18.10;99.90;;;;;;4967940;28;20482;-84
2023/05/08 11:52:53;;;;;;;8.10;6.87;;;18.10;99.90;;;;;;4976642;28;20507;-84
2023/05/08 11:55:43;;;;;;;8.50;7.00;;;18.20;99.90;;;;;;4972527;28;20440;-84
2023/05/08 11:58:43;;;;;;;11.00;7.13;;;18.30;99.90;;;;;;4980109;28;20476;-81
2023/05/08 12:01:26;;;;;;;6.50;5.70;;;18.40;99.90;;;;;;4996162;28;20471;-82
2023/05/08 12:04:12;;;;;;;7.00;5.93;;;18.60;99.90;;;;;;4995902;28;20453;-82
2023/05/08 12:06:56;;;;;;;6.67;6.03;;;18.70;99.90;;;;;;5003004;28;20457;-82
2023/05/08 12:09:36;;;;;;;6.90;6.20;;;18.50;99.90;;;;;;4988747;28;20520;-82
2023/05/08 12:12:33;;;;;;;7.93;6.37;;;18.80;99.90;;;;;;4993109;28;20492;-83
2023/05/08 12:15:20;;;;;;;7.60;6.20;;;18.80;99.90;;;;;;4963120;28;20895;-82
2023/05/08 12:18:14;;;;;;;5.43;4.93;;;18.90;99.90;;;;;;4970780;28;20509;-82
2023/05/08 12:29:07;;;;;;;6.47;5.57;;;19.20;99.90;;;;;;4946741;28;20488;-84
2023/05/08 12:31:49;;;;;;;6.30;5.70;;;19.40;99.70;;;;;;4973651;28;20468;-82
2023/05/08 12:34:23;;;;;;;6.77;6.07;;;19.40;99.90;;;;;;4968308;28;20511;-83
2023/05/08 12:37:16;;;;;;;5.80;4.77;;;19.40;99.90;;;;;;4963630;28;20467;-83
2023/05/08 12:40:21;;;;;;;6.33;5.63;;;19.60;99.90;;;;;;4965056;28;21175;-82
2023/05/08 12:43:03;;;;;;;6.67;6.00;;;19.50;99.90;;;;;;4984968;28;20507;-84
2023/05/08 12:45:43;;;;;;;5.37;4.87;;;19.90;99.80;;;;;;4967970;28;20484;-85
2023/05/08 12:48:29;;;;;;;6.10;5.37;;;19.90;99.20;;;;;;4971227;28;20582;-83
2023/05/08 12:51:15;;;;;;;5.43;5.03;;;19.80;99.50;;;;;;4989926;28;20517;-83
2023/05/08 12:54:01;;;;;;;6.00;5.03;;;19.80;99.50;;;;;;4968667;28;20458;-84
2023/05/08 12:56:46;;;;;;;5.50;5.00;;;20.00;98.70;;;;;;4972099;28;20460;-82
2023/05/08 12:59:40;;;;;;;5.43;4.83;;;19.80;99.00;;;;;;4970173;28;20867;-83
2023/05/08 13:02:22;;;;;;;5.43;4.93;;;19.50;99.40;;;;;;4974890;28;20550;-84
2023/05/08 13:05:02;;;;;;;6.10;5.50;;;19.40;99.80;;;;;;4975652;28;20456;-84
2023/05/08 13:08:11;;;;;;;;;;;;;;;;;;;;;
2023/05/08 13:11:08;;;;;;;6.30;5.70;;;19.50;99.90;;;;;;4977883;28;20487;-82
2023/05/08 13:14:00;;;;;;;6.63;5.93;;;19.40;99.90;;;;;;4977445;28;20448;-83
2023/05/08 13:20:45;;;;;;;6.27;5.63;;;19.20;99.90;;;;;;4977535;28;20456;-83
2023/05/08 13:23:27;;;;;;;6.87;6.23;;;19.20;99.90;;;;;;4978519;28;20483;-83
2023/05/08 13:26:07;;;;;;;6.83;6.23;;;19.10;99.90;;;;;;4985751;28;20459;-84
2023/05/08 13:28:46;;;;;;;7.13;6.53;;;19.00;99.90;;;;;;4981370;28;20506;-83
2023/05/08 13:31:31;;;;;;;7.97;6.40;;;19.00;99.90;;;;;;4976500;28;20511;-84
2023/05/08 13:34:33;;;;;;;7.67;6.60;;;18.70;99.90;;;;;;4990380;28;20467;-83
2023/05/08 13:37:37;;;;;;;7.30;6.60;;;18.70;99.90;;;;;;4970426;28;20518;-84
2023/05/08 13:40:08;;;;;;;7.77;7.00;;;18.70;99.90;;;;;;4976404;28;20455;-84
2023/05/08 13:42:48;;;;;;;7.67;6.80;;;18.70;99.90;;;;;;4978458;28;20455;-84
2023/05/08 13:45:39;;;;;;;7.13;6.43;;;18.60;99.90;;;;;;4969471;28;20469;-84
2023/05/08 13:48:23;;;;;;;6.90;6.30;;;18.80;99.90;;;;;;4986032;28;20479;-83
2023/05/08 13:50:56;;;;;;;7.07;6.37;;;18.90;99.90;;;;;;5004675;28;20471;-83
2023/05/08 13:53:36;;;;;;;7.77;6.53;;;18.90;99.90;;;;;;4990947;28;20838;-81
2023/05/08 13:56:40;;;;;;;7.33;6.30;;;19.00;99.90;;;;;;4982802;28;20456;-84
2023/05/08 13:59:12;;;;;;;7.37;6.70;;;18.90;99.90;;;;;;4992073;28;20472;-83
2023/05/08 14:02:13;;;;;;;7.07;6.37;;;18.90;99.90;;;;;;4971129;28;20476;-83
2023/05/08 14:04:55;;;;;;;7.90;6.47;;;18.90;99.90;;;;;;4972980;28;20460;-82
2023/05/08 14:07:58;;;;;;;6.40;5.80;;;19.20;99.90;;;;;;4979536;28;20456;-82
2023/05/08 14:10:35;;;;;;;7.40;6.33;;;19.30;99.90;;;;;;4989505;28;20476;-83
2023/05/08 14:13:54;;;;;;;;;;;;;;;;;;;;;
2023/05/08 14:16:54;;;;;;;6.80;6.10;;;19.50;99.90;;;;;;4982337;28;20476;-82
2023/05/08 14:19:46;;;;;;;6.33;5.73;;;19.80;99.70;;;;;;4972098;28;20447;-84
2023/05/08 14:22:54;;;;;;;7.07;6.47;;;19.70;99.70;;;;;;4973142;28;20529;-83